sensor_id;sensor_type;location;lat;lon;timestamp;temperature;humidity
23010;DHT22;11671;49.990;8.028;2023-04-07T00:00:15;9.30;99.90
23010;DHT22;11671;49.990;8.028;2023-04-07T00:02:42;9.30;99.90
23010;DHT22;11671;49.990;8.028;2023-04-07T00:05:07;9.30;99.90
23010;DHT22;11671;49.990;8.028;2023-04-07T00:07:33;9.30;99.90
23010;DHT22;11671;49.990;8.028;2023-04-07T00:09:58;9.30;99.90
23010;DHT22;11671;49.990;8.028;2023-04-07T00:12:24;9.30;99.90
23010;DHT22;11671;49.990;8.028;2023-04-07T00:14:49;9.40;99.90
23010;DHT22;11671;49.990;8.028;2023-04-07T00:17:15;9.30;99.90
23010;DHT22;11671;49.990;8.028;2023-04-07T00:19:40;9.30;99.90
23010;DHT22;11671;49.990;8.028;2023-04-07T00:22:06;9.30;99.90
23010;DHT22;11671;49.990;8.028;2023-04-07T00:24:31;9.30;99.90
23010;DHT22;11671;49.990;8.028;2023-04-07T00:26:57;9.30;99.90
23010;DHT22;11671;49.990;8.028;2023-04-07T00:29:22;9.30;99.90
23010;DHT22;11671;49.990;8.028;2023-04-07T00:31:48;9.30;99.90
23010;DHT22;11671;49.990;8.028;2023-04-07T00:34:13;9.20;99.90
23010;DHT22;11671;49.990;8.028;2023-04-07T00:36:38;9.20;99.90
23010;DHT22;11671;49.990;8.028;2023-04-07T00:39:04;9.20;99.90
23010;DHT22;11671;49.990;8.028;2023-04-07T00:41:29;9.20;99.90
23010;DHT22;11671;49.990;8.028;2023-04-07T00:43:58;9.30;99.90
23010;DHT22;11671;49.990;8.028;2023-04-07T00:46:23;9.20;99.90
23010;DHT22;11671;49.990;8.028;2023-04-07T00:48:49;9.20;99.90
23010;DHT22;11671;49.990;8.028;2023-04-07T00:51:14;9.20;99.90
23010;DHT22;11671;49.990;8.028;2023-04-07T00:53:40;9.30;99.90
23010;DHT22;11671;49.990;8.028;2023-04-07T00:56:06;9.30;99.90
23010;DHT22;11671;49.990;8.028;2023-04-07T00:58:31;9.30;99.90
23010;DHT22;11671;49.990;8.028;2023-04-07T01:00:59;9.20;99.90
23010;DHT22;11671;49.990;8.028;2023-04-07T01:06:30;9.20;99.90
23010;DHT22;11671;49.990;8.028;2023-04-07T01:09:08;9.10;99.90
23010;DHT22;11671;49.990;8.028;2023-04-07T01:14:03;9.10;99.90
23010;DHT22;11671;49.990;8.028;2023-04-07T01:16:31;9.10;99.90
23010;DHT22;11671;49.990;8.028;2023-04-07T01:18:59;9.10;99.90
23010;DHT22;11671;49.990;8.028;2023-04-07T01:21:26;9.10;99.90
23010;DHT22;11671;49.990;8.028;2023-04-07T01:26:37;9.10;99.90
23010;DHT22;11671;49.990;8.028;2023-04-07T01:31:44;9.00;99.90
23010;DHT22;11671;49.990;8.028;2023-04-07T01:34:10;9.00;99.90
23010;DHT22;11671;49.990;8.028;2023-04-07T01:36:36;9.10;99.90
23010;DHT22;11671;49.990;8.028;2023-04-07T01:39:02;9.20;99.90
23010;DHT22;11671;49.990;8.028;2023-04-07T01:41:28;9.30;99.90
23010;DHT22;11671;49.990;8.028;2023-04-07T01:43:54;9.30;99.90
23010;DHT22;11671;49.990;8.028;2023-04-07T01:46:20;9.30;99.90
23010;DHT22;11671;49.990;8.028;2023-04-07T01:48:46;9.30;99.90
23010;DHT22;11671;49.990;8.028;2023-04-07T01:51:12;9.30;99.90
23010;DHT22;11671;49.990;8.028;2023-04-07T01:53:41;9.30;99.90
23010;DHT22;11671;49.990;8.028;2023-04-07T01:56:07;9.20;99.90
23010;DHT22;11671;49.990;8.028;2023-04-07T01:58:33;9.30;99.90
23010;DHT22;11671;49.990;8.028;2023-04-07T02:00:58;9.30;99.90
23010;DHT22;11671;49.990;8.028;2023-04-07T02:03:28;9.20;99.90
23010;DHT22;11671;49.990;8.028;2023-04-07T02:05:56;9.10;99.90
23010;DHT22;11671;49.990;8.028;2023-04-07T02:08:26;9.10;99.90
23010;DHT22;11671;49.990;8.028;2023-04-07T02:10:52;9.00;99.90
23010;DHT22;11671;49.990;8.028;2023-04-07T02:13:19;9.10;99.90
23010;DHT22;11671;49.990;8.028;2023-04-07T02:15:44;9.10;99.90
23010;DHT22;11671;49.990;8.028;2023-04-07T02:18:11;9.20;99.90
23010;DHT22;11671;49.990;8.028;2023-04-07T02:20:37;9.30;99.90
23010;DHT22;11671;49.990;8.028;2023-04-07T02:23:06;9.30;99.90
23010;DHT22;11671;49.990;8.028;2023-04-07T02:25:31;9.20;99.90
23010;DHT22;11671;49.990;8.028;2023-04-07T02:27:59;9.20;99.90
23010;DHT22;11671;49.990;8.028;2023-04-07T02:30:25;9.20;99.90
23010;DHT22;11671;49.990;8.028;2023-04-07T02:32:51;9.10;99.90
23010;DHT22;11671;49.990;8.028;2023-04-07T02:35:17;9.00;99.90
23010;DHT22;11671;49.990;8.028;2023-04-07T02:37:43;8.90;99.90
23010;DHT22;11671;49.990;8.028;2023-04-07T02:40:09;9.00;99.90
23010;DHT22;11671;49.990;8.028;2023-04-07T02:42:34;9.10;99.90
23010;DHT22;11671;49.990;8.028;2023-04-07T02:45:01;9.20;99.90
23010;DHT22;11671;49.990;8.028;2023-04-07T02:47:26;9.20;99.90
23010;DHT22;11671;49.990;8.028;2023-04-07T02:49:52;9.30;99.90
23010;DHT22;11671;49.990;8.028;2023-04-07T02:52:17;9.20;99.90
23010;DHT22;11671;49.990;8.028;2023-04-07T02:54:43;9.20;99.90
23010;DHT22;11671;49.990;8.028;2023-04-07T02:57:08;9.20;99.90
23010;DHT22;11671;49.990;8.028;2023-04-07T02:59:34;9.20;99.90
23010;DHT22;11671;49.990;8.028;2023-04-07T03:01:59;9.20;99.90
23010;DHT22;11671;49.990;8.028;2023-04-07T03:04:25;9.20;99.90
23010;DHT22;11671;49.990;8.028;2023-04-07T03:06:50;9.10;99.90
23010;DHT22;11671;49.990;8.028;2023-04-07T03:09:16;9.10;99.90
23010;DHT22;11671;49.990;8.028;2023-04-07T03:11:41;9.10;99.90
23010;DHT22;11671;49.990;8.028;2023-04-07T03:14:07;9.10;99.90
23010;DHT22;11671;49.990;8.028;2023-04-07T03:16:32;9.20;99.90
23010;DHT22;11671;49.990;8.028;2023-04-07T03:18:58;9.20;99.90
23010;DHT22;11671;49.990;8.028;2023-04-07T03:21:23;9.10;99.90
23010;DHT22;11671;49.990;8.028;2023-04-07T03:23:49;9.10;99.90
23010;DHT22;11671;49.990;8.028;2023-04-07T03:26:14;9.10;99.90
23010;DHT22;11671;49.990;8.028;2023-04-07T03:28:40;9.20;99.90
23010;DHT22;11671;49.990;8.028;2023-04-07T03:31:05;9.20;99.90
23010;DHT22;11671;49.990;8.028;2023-04-07T03:33:31;9.20;99.90
23010;DHT22;11671;49.990;8.028;2023-04-07T03:35:56;9.10;99.90
23010;DHT22;11671;49.990;8.028;2023-04-07T03:38:22;9.10;99.90
23010;DHT22;11671;49.990;8.028;2023-04-07T03:40:47;9.10;99.90
23010;DHT22;11671;49.990;8.028;2023-04-07T03:43:13;9.10;99.90
23010;DHT22;11671;49.990;8.028;2023-04-07T03:45:40;9.10;99.90
23010;DHT22;11671;49.990;8.028;2023-04-07T03:48:06;9.10;99.90
23010;DHT22;11671;49.990;8.028;2023-04-07T03:50:34;9.00;99.90
23010;DHT22;11671;49.990;8.028;2023-04-07T03:53:00;9.10;99.90
23010;DHT22;11671;49.990;8.028;2023-04-07T03:55:26;9.10;99.90
23010;DHT22;11671;49.990;8.028;2023-04-07T03:57:51;9.00;99.90
23010;DHT22;11671;49.990;8.028;2023-04-07T04:00:17;9.10;99.90
23010;DHT22;11671;49.990;8.028;2023-04-07T04:02:43;9.10;99.90
23010;DHT22;11671;49.990;8.028;2023-04-07T04:05:11;9.20;99.90
23010;DHT22;11671;49.990;8.028;2023-04-07T04:07:36;9.10;99.90
23010;DHT22;11671;49.990;8.028;2023-04-07T04:10:02;9.10;99.90
23010;DHT22;11671;49.990;8.028;2023-04-07T04:12:27;9.00;99.90
23010;DHT22;11671;49.990;8.028;2023-04-07T04:14:53;9.00;99.90
23010;DHT22;11671;49.990;8.028;2023-04-07T04:17:18;9.10;99.90
23010;DHT22;11671;49.990;8.028;2023-04-07T04:19:44;9.00;99.90
23010;DHT22;11671;49.990;8.028;2023-04-07T04:22:10;9.00;99.90
23010;DHT22;11671;49.990;8.028;2023-04-07T04:24:35;9.10;99.90
23010;DHT22;11671;49.990;8.028;2023-04-07T04:27:01;9.00;99.90
23010;DHT22;11671;49.990;8.028;2023-04-07T04:29:26;9.10;99.90
23010;DHT22;11671;49.990;8.028;2023-04-07T04:31:52;9.20;99.90
23010;DHT22;11671;49.990;8.028;2023-04-07T04:34:17;9.20;99.90
23010;DHT22;11671;49.990;8.028;2023-04-07T04:36:43;9.10;99.90
23010;DHT22;11671;49.990;8.028;2023-04-07T04:39:08;9.10;99.90
23010;DHT22;11671;49.990;8.028;2023-04-07T04:41:34;9.10;99.90
23010;DHT22;11671;49.990;8.028;2023-04-07T04:43:59;9.10;99.90
23010;DHT22;11671;49.990;8.028;2023-04-07T04:46:25;9.10;99.90
23010;DHT22;11671;49.990;8.028;2023-04-07T04:48:51;9.20;99.90
23010;DHT22;11671;49.990;8.028;2023-04-07T04:51:18;9.10;99.90
23010;DHT22;11671;49.990;8.028;2023-04-07T04:53:44;9.10;99.90
23010;DHT22;11671;49.990;8.028;2023-04-07T04:56:09;9.10;99.90
23010;DHT22;11671;49.990;8.028;2023-04-07T04:58:36;9.10;99.90
23010;DHT22;11671;49.990;8.028;2023-04-07T05:01:01;9.10;99.90
23010;DHT22;11671;49.990;8.028;2023-04-07T05:03:27;9.10;99.90
23010;DHT22;11671;49.990;8.028;2023-04-07T05:05:53;9.20;99.90
23010;DHT22;11671;49.990;8.028;2023-04-07T05:08:18;9.20;99.90
23010;DHT22;11671;49.990;8.028;2023-04-07T05:10:45;9.20;99.90
23010;DHT22;11671;49.990;8.028;2023-04-07T05:13:10;9.30;99.90
23010;DHT22;11671;49.990;8.028;2023-04-07T05:15:36;9.30;99.90
23010;DHT22;11671;49.990;8.028;2023-04-07T05:18:01;9.40;99.90
23010;DHT22;11671;49.990;8.028;2023-04-07T05:20:27;9.30;99.90
23010;DHT22;11671;49.990;8.028;2023-04-07T05:22:52;9.30;99.90
23010;DHT22;11671;49.990;8.028;2023-04-07T05:25:18;9.20;99.90
23010;DHT22;11671;49.990;8.028;2023-04-07T05:27:43;9.30;99.90
23010;DHT22;11671;49.990;8.028;2023-04-07T05:30:09;9.60;99.90
23010;DHT22;11671;49.990;8.028;2023-04-07T05:32:34;9.70;99.90
23010;DHT22;11671;49.990;8.028;2023-04-07T05:35:00;9.80;99.90
23010;DHT22;11671;49.990;8.028;2023-04-07T05:37:25;9.80;99.90
23010;DHT22;11671;49.990;8.028;2023-04-07T05:39:51;9.90;99.90
23010;DHT22;11671;49.990;8.028;2023-04-07T05:42:16;10.00;99.90
23010;DHT22;11671;49.990;8.028;2023-04-07T05:44:42;10.20;99.90
23010;DHT22;11671;49.990;8.028;2023-04-07T05:47:07;10.10;99.90
23010;DHT22;11671;49.990;8.028;2023-04-07T05:49:36;10.00;99.90
23010;DHT22;11671;49.990;8.028;2023-04-07T05:52:02;9.90;99.90
23010;DHT22;11671;49.990;8.028;2023-04-07T05:54:27;9.90;99.90
23010;DHT22;11671;49.990;8.028;2023-04-07T05:56:53;9.90;99.90
23010;DHT22;11671;49.990;8.028;2023-04-07T05:59:18;9.90;99.90
23010;DHT22;11671;49.990;8.028;2023-04-07T06:01:44;9.90;99.90
23010;DHT22;11671;49.990;8.028;2023-04-07T06:04:10;9.90;99.90
23010;DHT22;11671;49.990;8.028;2023-04-07T06:06:38;9.80;99.90
23010;DHT22;11671;49.990;8.028;2023-04-07T06:09:03;10.00;99.90
23010;DHT22;11671;49.990;8.028;2023-04-07T06:11:29;9.90;99.90
23010;DHT22;11671;49.990;8.028;2023-04-07T06:13:55;9.90;99.90
23010;DHT22;11671;49.990;8.028;2023-04-07T06:16:20;10.10;99.90
23010;DHT22;11671;49.990;8.028;2023-04-07T06:18:46;10.10;99.90
23010;DHT22;11671;49.990;8.028;2023-04-07T06:21:11;10.00;99.90
23010;DHT22;11671;49.990;8.028;2023-04-07T06:23:37;10.10;99.90
23010;DHT22;11671;49.990;8.028;2023-04-07T06:26:02;10.00;99.90
23010;DHT22;11671;49.990;8.028;2023-04-07T06:28:28;10.00;99.90
23010;DHT22;11671;49.990;8.028;2023-04-07T06:30:53;10.00;99.90
23010;DHT22;11671;49.990;8.028;2023-04-07T06:33:19;9.90;99.90
23010;DHT22;11671;49.990;8.028;2023-04-07T06:35:49;9.90;99.90
23010;DHT22;11671;49.990;8.028;2023-04-07T06:38:15;9.90;99.90
23010;DHT22;11671;49.990;8.028;2023-04-07T06:40:41;10.00;99.90
23010;DHT22;11671;49.990;8.028;2023-04-07T06:43:06;10.10;99.90
23010;DHT22;11671;49.990;8.028;2023-04-07T06:45:32;10.00;99.90
23010;DHT22;11671;49.990;8.028;2023-04-07T06:47:57;10.00;99.90
23010;DHT22;11671;49.990;8.028;2023-04-07T06:50:22;10.00;99.90
23010;DHT22;11671;49.990;8.028;2023-04-07T06:52:48;10.10;99.90
23010;DHT22;11671;49.990;8.028;2023-04-07T06:55:13;10.20;99.90
23010;DHT22;11671;49.990;8.028;2023-04-07T06:57:39;10.10;99.90
23010;DHT22;11671;49.990;8.028;2023-04-07T07:00:05;10.10;99.90
23010;DHT22;11671;49.990;8.028;2023-04-07T07:02:32;10.10;99.90
23010;DHT22;11671;49.990;8.028;2023-04-07T07:04:57;10.10;99.90
23010;DHT22;11671;49.990;8.028;2023-04-07T07:07:23;10.10;99.90
23010;DHT22;11671;49.990;8.028;2023-04-07T07:09:50;10.10;99.90
23010;DHT22;11671;49.990;8.028;2023-04-07T07:12:15;10.20;99.90
23010;DHT22;11671;49.990;8.028;2023-04-07T07:14:42;10.20;99.90
23010;DHT22;11671;49.990;8.028;2023-04-07T07:17:07;10.30;99.90
23010;DHT22;11671;49.990;8.028;2023-04-07T07:19:33;10.30;99.90
23010;DHT22;11671;49.990;8.028;2023-04-07T07:21:59;10.40;99.90
23010;DHT22;11671;49.990;8.028;2023-04-07T07:24:25;10.40;99.90
23010;DHT22;11671;49.990;8.028;2023-04-07T07:26:50;10.50;99.90
23010;DHT22;11671;49.990;8.028;2023-04-07T07:29:16;10.50;99.90
23010;DHT22;11671;49.990;8.028;2023-04-07T07:31:41;10.50;99.90
23010;DHT22;11671;49.990;8.028;2023-04-07T07:34:07;10.60;99.90
23010;DHT22;11671;49.990;8.028;2023-04-07T07:36:33;10.70;99.90
23010;DHT22;11671;49.990;8.028;2023-04-07T07:38:58;10.70;99.90
23010;DHT22;11671;49.990;8.028;2023-04-07T07:41:24;10.80;99.90
23010;DHT22;11671;49.990;8.028;2023-04-07T07:43:50;10.90;99.90
23010;DHT22;11671;49.990;8.028;2023-04-07T07:46:16;11.00;99.90
23010;DHT22;11671;49.990;8.028;2023-04-07T07:48:41;11.10;99.90
23010;DHT22;11671;49.990;8.028;2023-04-07T07:51:07;11.10;99.90
23010;DHT22;11671;49.990;8.028;2023-04-07T07:53:32;11.20;99.90
23010;DHT22;11671;49.990;8.028;2023-04-07T07:55:58;11.30;99.90
23010;DHT22;11671;49.990;8.028;2023-04-07T07:58:23;11.30;99.90
23010;DHT22;11671;49.990;8.028;2023-04-07T08:00:49;11.40;99.90
23010;DHT22;11671;49.990;8.028;2023-04-07T08:03:15;11.40;99.90
23010;DHT22;11671;49.990;8.028;2023-04-07T08:05:40;11.40;99.90
23010;DHT22;11671;49.990;8.028;2023-04-07T08:08:07;11.40;99.90
23010;DHT22;11671;49.990;8.028;2023-04-07T08:10:32;11.40;99.90
23010;DHT22;11671;49.990;8.028;2023-04-07T08:12:57;11.30;99.90
23010;DHT22;11671;49.990;8.028;2023-04-07T08:15:23;11.20;99.90
23010;DHT22;11671;49.990;8.028;2023-04-07T08:17:48;11.20;99.90
23010;DHT22;11671;49.990;8.028;2023-04-07T08:20:14;11.10;99.90
23010;DHT22;11671;49.990;8.028;2023-04-07T08:22:40;11.00;99.90
23010;DHT22;11671;49.990;8.028;2023-04-07T08:25:07;11.00;99.90
23010;DHT22;11671;49.990;8.028;2023-04-07T08:27:32;11.00;99.90
23010;DHT22;11671;49.990;8.028;2023-04-07T08:30:02;11.10;99.90
23010;DHT22;11671;49.990;8.028;2023-04-07T08:32:39;11.10;99.90
23010;DHT22;11671;49.990;8.028;2023-04-07T08:35:07;11.20;99.90
23010;DHT22;11671;49.990;8.028;2023-04-07T08:37:33;11.20;99.90
23010;DHT22;11671;49.990;8.028;2023-04-07T08:39:59;11.30;99.90
23010;DHT22;11671;49.990;8.028;2023-04-07T08:42:28;11.30;99.90
23010;DHT22;11671;49.990;8.028;2023-04-07T08:44:57;11.30;99.90
23010;DHT22;11671;49.990;8.028;2023-04-07T08:47:26;11.30;99.90
23010;DHT22;11671;49.990;8.028;2023-04-07T08:49:53;11.40;99.90
23010;DHT22;11671;49.990;8.028;2023-04-07T08:52:21;11.40;99.90
23010;DHT22;11671;49.990;8.028;2023-04-07T08:54:47;11.40;99.90
23010;DHT22;11671;49.990;8.028;2023-04-07T08:57:13;11.30;99.90
23010;DHT22;11671;49.990;8.028;2023-04-07T08:59:41;11.20;99.90
23010;DHT22;11671;49.990;8.028;2023-04-07T09:02:09;11.40;99.90
23010;DHT22;11671;49.990;8.028;2023-04-07T09:04:35;11.50;99.90
23010;DHT22;11671;49.990;8.028;2023-04-07T09:07:01;11.60;99.90
23010;DHT22;11671;49.990;8.028;2023-04-07T09:09:26;11.60;99.90
23010;DHT22;11671;49.990;8.028;2023-04-07T09:11:52;11.60;99.90
23010;DHT22;11671;49.990;8.028;2023-04-07T09:14:18;11.70;99.90
23010;DHT22;11671;49.990;8.028;2023-04-07T09:16:45;11.80;99.90
23010;DHT22;11671;49.990;8.028;2023-04-07T09:19:11;11.80;99.90
23010;DHT22;11671;49.990;8.028;2023-04-07T09:21:46;11.80;99.90
23010;DHT22;11671;49.990;8.028;2023-04-07T09:26:47;11.90;99.90
23010;DHT22;11671;49.990;8.028;2023-04-07T09:29:17;11.90;99.90
23010;DHT22;11671;49.990;8.028;2023-04-07T09:34:24;11.90;99.90
23010;DHT22;11671;49.990;8.028;2023-04-07T09:36:50;11.90;99.90
23010;DHT22;11671;49.990;8.028;2023-04-07T09:39:16;11.90;99.90
23010;DHT22;11671;49.990;8.028;2023-04-07T09:41:41;11.90;99.90
23010;DHT22;11671;49.990;8.028;2023-04-07T09:44:07;11.90;99.90
23010;DHT22;11671;49.990;8.028;2023-04-07T09:46:32;11.90;99.90
23010;DHT22;11671;49.990;8.028;2023-04-07T09:49:01;12.00;99.90
23010;DHT22;11671;49.990;8.028;2023-04-07T09:51:29;12.10;99.90
23010;DHT22;11671;49.990;8.028;2023-04-07T09:53:55;12.20;99.90
23010;DHT22;11671;49.990;8.028;2023-04-07T09:56:20;12.30;99.90
23010;DHT22;11671;49.990;8.028;2023-04-07T09:58:49;12.30;99.90
23010;DHT22;11671;49.990;8.028;2023-04-07T10:01:16;12.30;99.90
23010;DHT22;11671;49.990;8.028;2023-04-07T10:03:42;12.30;99.90
23010;DHT22;11671;49.990;8.028;2023-04-07T10:06:08;12.30;99.90
23010;DHT22;11671;49.990;8.028;2023-04-07T10:08:36;12.40;99.90
23010;DHT22;11671;49.990;8.028;2023-04-07T10:11:02;12.40;99.90
23010;DHT22;11671;49.990;8.028;2023-04-07T10:13:28;12.40;99.90
23010;DHT22;11671;49.990;8.028;2023-04-07T10:15:54;12.40;99.90
23010;DHT22;11671;49.990;8.028;2023-04-07T10:18:20;12.30;99.90
23010;DHT22;11671;49.990;8.028;2023-04-07T10:20:47;12.40;99.90
23010;DHT22;11671;49.990;8.028;2023-04-07T10:23:20;12.50;99.90
23010;DHT22;11671;49.990;8.028;2023-04-07T10:25:48;12.50;99.90
23010;DHT22;11671;49.990;8.028;2023-04-07T10:28:15;12.60;99.90
23010;DHT22;11671;49.990;8.028;2023-04-07T10:30:41;12.50;99.90
23010;DHT22;11671;49.990;8.028;2023-04-07T10:33:07;12.40;99.90
23010;DHT22;11671;49.990;8.028;2023-04-07T10:38:17;12.40;99.90
23010;DHT22;11671;49.990;8.028;2023-04-07T10:40:43;12.40;99.90
23010;DHT22;11671;49.990;8.028;2023-04-07T10:43:09;12.30;99.90
23010;DHT22;11671;49.990;8.028;2023-04-07T10:48:16;12.30;99.90
23010;DHT22;11671;49.990;8.028;2023-04-07T10:50:43;12.20;99.90
23010;DHT22;11671;49.990;8.028;2023-04-07T10:53:12;12.20;99.90
23010;DHT22;11671;49.990;8.028;2023-04-07T10:55:39;12.30;99.90
23010;DHT22;11671;49.990;8.028;2023-04-07T10:58:14;12.30;99.90
23010;DHT22;11671;49.990;8.028;2023-04-07T11:00:40;12.40;99.90
23010;DHT22;11671;49.990;8.028;2023-04-07T11:03:12;12.40;99.90
23010;DHT22;11671;49.990;8.028;2023-04-07T11:05:38;12.10;99.90
23010;DHT22;11671;49.990;8.028;2023-04-07T11:08:04;12.20;99.90
23010;DHT22;11671;49.990;8.028;2023-04-07T11:10:31;12.20;99.90
23010;DHT22;11671;49.990;8.028;2023-04-07T11:13:00;12.40;99.90
23010;DHT22;11671;49.990;8.028;2023-04-07T11:15:26;12.50;99.90
23010;DHT22;11671;49.990;8.028;2023-04-07T11:20:43;12.50;99.90
23010;DHT22;11671;49.990;8.028;2023-04-07T11:23:09;12.40;99.90
23010;DHT22;11671;49.990;8.028;2023-04-07T11:25:35;12.40;99.90
23010;DHT22;11671;49.990;8.028;2023-04-07T11:28:02;12.50;99.90
23010;DHT22;11671;49.990;8.028;2023-04-07T11:30:28;12.50;99.90
23010;DHT22;11671;49.990;8.028;2023-04-07T11:32:53;12.40;99.90
23010;DHT22;11671;49.990;8.028;2023-04-07T11:35:20;12.40;99.90
23010;DHT22;11671;49.990;8.028;2023-04-07T11:37:45;12.50;99.90
23010;DHT22;11671;49.990;8.028;2023-04-07T11:40:11;12.50;99.90
23010;DHT22;11671;49.990;8.028;2023-04-07T11:42:41;12.60;99.90
23010;DHT22;11671;49.990;8.028;2023-04-07T11:45:16;12.60;99.90
23010;DHT22;11671;49.990;8.028;2023-04-07T11:47:42;12.50;99.90
23010;DHT22;11671;49.990;8.028;2023-04-07T11:50:08;12.50;99.90
23010;DHT22;11671;49.990;8.028;2023-04-07T11:52:40;12.60;99.90
23010;DHT22;11671;49.990;8.028;2023-04-07T11:55:06;12.60;99.90
23010;DHT22;11671;49.990;8.028;2023-04-07T11:57:31;12.50;99.90
23010;DHT22;11671;49.990;8.028;2023-04-07T12:00:06;12.50;99.90
23010;DHT22;11671;49.990;8.028;2023-04-07T12:02:33;12.60;99.90
23010;DHT22;11671;49.990;8.028;2023-04-07T12:04:58;12.70;99.90
23010;DHT22;11671;49.990;8.028;2023-04-07T12:07:24;12.80;99.90
23010;DHT22;11671;49.990;8.028;2023-04-07T12:09:49;12.90;99.90
23010;DHT22;11671;49.990;8.028;2023-04-07T12:12:23;13.00;99.90
23010;DHT22;11671;49.990;8.028;2023-04-07T12:14:49;13.10;99.90
23010;DHT22;11671;49.990;8.028;2023-04-07T12:17:25;13.10;99.90
23010;DHT22;11671;49.990;8.028;2023-04-07T12:19:51;13.10;99.90
23010;DHT22;11671;49.990;8.028;2023-04-07T12:22:16;13.00;99.90
23010;DHT22;11671;49.990;8.028;2023-04-07T12:24:42;13.00;99.90
23010;DHT22;11671;49.990;8.028;2023-04-07T12:27:07;12.90;99.90
23010;DHT22;11671;49.990;8.028;2023-04-07T12:29:34;12.90;99.90
23010;DHT22;11671;49.990;8.028;2023-04-07T12:32:01;12.90;99.90
23010;DHT22;11671;49.990;8.028;2023-04-07T12:34:27;12.90;99.90
23010;DHT22;11671;49.990;8.028;2023-04-07T12:36:52;13.00;99.90
23010;DHT22;11671;49.990;8.028;2023-04-07T12:39:18;12.90;99.90
23010;DHT22;11671;49.990;8.028;2023-04-07T12:41:44;12.90;99.90
23010;DHT22;11671;49.990;8.028;2023-04-07T12:44:14;12.90;99.90
23010;DHT22;11671;49.990;8.028;2023-04-07T12:46:39;12.80;99.90
23010;DHT22;11671;49.990;8.028;2023-04-07T12:49:05;12.70;99.90
23010;DHT22;11671;49.990;8.028;2023-04-07T12:51:30;12.60;99.90
23010;DHT22;11671;49.990;8.028;2023-04-07T12:53:57;12.60;99.90
23010;DHT22;11671;49.990;8.028;2023-04-07T12:56:25;12.50;99.90
23010;DHT22;11671;49.990;8.028;2023-04-07T12:58:50;12.50;99.90
23010;DHT22;11671;49.990;8.028;2023-04-07T13:01:16;12.60;99.90
23010;DHT22;11671;49.990;8.028;2023-04-07T13:03:41;12.50;99.90
23010;DHT22;11671;49.990;8.028;2023-04-07T13:06:07;12.60;99.90
23010;DHT22;11671;49.990;8.028;2023-04-07T13:08:32;12.50;99.90
23010;DHT22;11671;49.990;8.028;2023-04-07T13:10:58;12.50;99.90
23010;DHT22;11671;49.990;8.028;2023-04-07T13:13:23;12.50;99.90
23010;DHT22;11671;49.990;8.028;2023-04-07T13:15:49;12.50;99.90
23010;DHT22;11671;49.990;8.028;2023-04-07T13:18:15;12.50;99.90
23010;DHT22;11671;49.990;8.028;2023-04-07T13:20:40;12.40;99.90
23010;DHT22;11671;49.990;8.028;2023-04-07T13:23:06;12.30;99.90
23010;DHT22;11671;49.990;8.028;2023-04-07T13:25:31;12.30;99.90
23010;DHT22;11671;49.990;8.028;2023-04-07T13:27:57;12.30;99.90
23010;DHT22;11671;49.990;8.028;2023-04-07T13:30:24;12.30;99.90
23010;DHT22;11671;49.990;8.028;2023-04-07T13:32:49;12.40;99.90
23010;DHT22;11671;49.990;8.028;2023-04-07T13:35:15;12.50;99.90
23010;DHT22;11671;49.990;8.028;2023-04-07T13:37:41;12.50;99.90
23010;DHT22;11671;49.990;8.028;2023-04-07T13:40:07;12.40;99.90
23010;DHT22;11671;49.990;8.028;2023-04-07T13:42:33;12.50;99.90
23010;DHT22;11671;49.990;8.028;2023-04-07T13:44:58;12.30;99.90
23010;DHT22;11671;49.990;8.028;2023-04-07T13:47:24;12.30;99.90
23010;DHT22;11671;49.990;8.028;2023-04-07T13:49:50;12.40;99.90
23010;DHT22;11671;49.990;8.028;2023-04-07T13:52:19;12.40;99.90
23010;DHT22;11671;49.990;8.028;2023-04-07T13:54:44;12.50;99.90
23010;DHT22;11671;49.990;8.028;2023-04-07T13:57:10;12.40;99.90
23010;DHT22;11671;49.990;8.028;2023-04-07T13:59:36;12.40;99.90
23010;DHT22;11671;49.990;8.028;2023-04-07T14:02:01;12.40;99.90
23010;DHT22;11671;49.990;8.028;2023-04-07T14:04:27;12.50;99.90
23010;DHT22;11671;49.990;8.028;2023-04-07T14:06:52;12.60;99.90
23010;DHT22;11671;49.990;8.028;2023-04-07T14:09:18;12.70;99.90
23010;DHT22;11671;49.990;8.028;2023-04-07T14:11:43;12.70;99.90
23010;DHT22;11671;49.990;8.028;2023-04-07T14:14:09;12.70;99.90
23010;DHT22;11671;49.990;8.028;2023-04-07T14:16:35;12.60;99.90
23010;DHT22;11671;49.990;8.028;2023-04-07T14:19:00;12.70;99.90
23010;DHT22;11671;49.990;8.028;2023-04-07T14:21:26;12.70;99.90
23010;DHT22;11671;49.990;8.028;2023-04-07T14:23:52;12.60;99.90
23010;DHT22;11671;49.990;8.028;2023-04-07T14:26:17;12.80;99.90
23010;DHT22;11671;49.990;8.028;2023-04-07T14:28:43;12.90;99.90
23010;DHT22;11671;49.990;8.028;2023-04-07T14:31:12;12.80;99.90
23010;DHT22;11671;49.990;8.028;2023-04-07T14:33:38;12.70;99.90
23010;DHT22;11671;49.990;8.028;2023-04-07T14:36:04;12.60;99.90
23010;DHT22;11671;49.990;8.028;2023-04-07T14:38:29;12.60;99.90
23010;DHT22;11671;49.990;8.028;2023-04-07T14:40:55;12.60;99.90
23010;DHT22;11671;49.990;8.028;2023-04-07T14:43:21;12.60;99.90
23010;DHT22;11671;49.990;8.028;2023-04-07T14:45:46;12.70;99.90
23010;DHT22;11671;49.990;8.028;2023-04-07T14:48:12;12.60;99.90
23010;DHT22;11671;49.990;8.028;2023-04-07T14:50:37;12.70;99.90
23010;DHT22;11671;49.990;8.028;2023-04-07T14:53:03;12.80;99.90
23010;DHT22;11671;49.990;8.028;2023-04-07T14:55:29;12.80;99.90
23010;DHT22;11671;49.990;8.028;2023-04-07T14:57:55;12.80;99.90
23010;DHT22;11671;49.990;8.028;2023-04-07T15:00:21;12.90;99.90
23010;DHT22;11671;49.990;8.028;2023-04-07T15:02:46;12.90;99.90
23010;DHT22;11671;49.990;8.028;2023-04-07T15:05:12;12.70;99.90
23010;DHT22;11671;49.990;8.028;2023-04-07T15:07:37;12.60;99.90
23010;DHT22;11671;49.990;8.028;2023-04-07T15:10:03;12.70;99.90
23010;DHT22;11671;49.990;8.028;2023-04-07T15:12:28;12.80;99.90
23010;DHT22;11671;49.990;8.028;2023-04-07T15:14:56;12.70;99.90
23010;DHT22;11671;49.990;8.028;2023-04-07T15:17:21;12.60;99.90
23010;DHT22;11671;49.990;8.028;2023-04-07T15:19:47;12.40;99.90
23010;DHT22;11671;49.990;8.028;2023-04-07T15:22:12;12.30;99.90
23010;DHT22;11671;49.990;8.028;2023-04-07T15:24:38;12.30;99.90
23010;DHT22;11671;49.990;8.028;2023-04-07T15:27:04;12.40;99.90
23010;DHT22;11671;49.990;8.028;2023-04-07T15:29:30;12.40;99.90
23010;DHT22;11671;49.990;8.028;2023-04-07T15:31:55;12.40;99.90
23010;DHT22;11671;49.990;8.028;2023-04-07T15:34:21;12.40;99.90
23010;DHT22;11671;49.990;8.028;2023-04-07T15:36:46;12.60;99.90
23010;DHT22;11671;49.990;8.028;2023-04-07T15:39:12;12.60;99.90
23010;DHT22;11671;49.990;8.028;2023-04-07T15:41:37;12.60;99.90
23010;DHT22;11671;49.990;8.028;2023-04-07T15:44:03;12.70;99.90
23010;DHT22;11671;49.990;8.028;2023-04-07T15:46:28;12.70;99.90
23010;DHT22;11671;49.990;8.028;2023-04-07T15:48:56;12.80;99.90
23010;DHT22;11671;49.990;8.028;2023-04-07T15:51:21;12.60;99.90
23010;DHT22;11671;49.990;8.028;2023-04-07T15:53:47;12.60;99.90